Time;durP1;ratioP1;P1;durP2;ratioP2;P2;SDS_P1;SDS_P2;PMS_P1;PMS_P2;Temp;Humidity;BMP_temperature;BMP_pressure;BME280_temperature;BME280_humidity;BME280_pressure;Samples;Min_cycle;Max_cycle;Signal;HPM_P1;HPM_P2
2023/09/20 00:01:23;;;;;;;0.10;0.10;;;;;;;;;;4807770;29;20056;-86
2023/09/20 00:03:50;;;;;;;0.10;0.10;;;;;;;;;;4807745;29;20106;-86
2023/09/20 00:06:17;;;;;;;0.10;0.10;;;;;;;;;;4822793;29;20060;-86
2023/09/20 00:08:44;;;;;;;0.10;0.10;;;;;;;;;;4793045;29;20039;-85
2023/09/20 00:11:15;;;;;;;0.20;0.20;;;;;;;;;;4822765;29;20039;-86
2023/09/20 00:13:42;;;;;;;0.22;0.22;;;;;;;;;;4822459;29;20042;-86
2023/09/20 00:16:09;;;;;;;0.10;0.10;;;;;;;;;;4822694;29;20503;-86
2023/09/20 00:18:35;;;;;;;0.38;0.38;;;;;;;;;;4792544;29;20088;-86
2023/09/20 00:21:01;;;;;;;0.10;0.10;;;;;;;;;;4822624;29;20046;-86
2023/09/20 00:23:28;;;;;;;0.10;0.10;;;;;;;;;;4807447;29;20057;-87
2023/09/20 00:25:54;;;;;;;0.15;0.15;;;;;;;;;;4822464;29;20062;-86
2023/09/20 00:28:21;;;;;;;0.10;0.10;;;;;;;;;;4822665;29;20054;-87
2023/09/20 00:30:47;;;;;;;0.10;0.10;;;;;;;;;;4822521;29;20487;-87
2023/09/20 00:33:14;;;;;;;0.20;0.20;;;;;;;;;;4807451;29;20499;-87
2023/09/20 00:35:40;;;;;;;0.10;0.10;;;;;;;;;;4807168;29;20091;-87
2023/09/20 00:38:06;;;;;;;0.10;0.10;;;;;;;;;;4822378;29;20550;-87
2023/09/20 00:40:37;;;;;;;0.10;0.10;;;;;;;;;;4807294;29;20115;-87
2023/09/20 00:43:08;;;;;;;0.10;0.10;;;;;;;;;;4807300;29;20054;-87
2023/09/20 00:45:36;;;;;;;0.10;0.10;;;;;;;;;;4808066;29;20129;-88
2023/09/20 00:48:02;;;;;;;0.10;0.10;;;;;;;;;;4807162;29;20208;-87
2023/09/20 00:50:28;;;;;;;0.10;0.10;;;;;;;;;;4807075;29;20045;-87
2023/09/20 00:52:55;;;;;;;0.10;0.10;;;;;;;;;;4806658;29;20046;-87
2023/09/20 00:55:28;;;;;;;0.20;0.20;;;;;;;;;;4806829;29;20043;-86
2023/09/20 00:57:55;;;;;;;0.22;0.20;;;;;;;;;;4822223;29;20094;-86
2023/09/20 01:00:28;;;;;;;0.20;0.20;;;;;;;;;;4807311;29;20065;-87
2023/09/20 01:02:55;;;;;;;0.20;0.20;;;;;;;;;;4807735;29;20133;-87
2023/09/20 01:05:22;;;;;;;0.10;0.10;;;;;;;;;;4791776;29;20085;-86
2023/09/20 01:07:51;;;;;;;0.10;0.10;;;;;;;;;;4791818;29;20050;-86
2023/09/20 01:10:23;;;;;;;0.10;0.10;;;;;;;;;;4821947;29;20082;-86
2023/09/20 01:12:51;;;;;;;0.10;0.10;;;;;;;;;;4792680;29;20503;-86
2023/09/20 01:15:17;;;;;;;0.10;0.10;;;;;;;;;;4806684;29;20089;-86
2023/09/20 01:17:46;;;;;;;0.10;0.10;;;;;;;;;;4806515;29;20085;-87
2023/09/20 01:20:13;;;;;;;0.10;0.10;;;;;;;;;;4821807;29;20038;-86
2023/09/20 01:22:39;;;;;;;0.10;0.10;;;;;;;;;;4821806;29;20085;-87
2023/09/20 01:25:07;;;;;;;0.10;0.10;;;;;;;;;;4824446;29;20514;-86
2023/09/20 01:27:35;;;;;;;0.20;0.20;;;;;;;;;;4825023;29;20058;-87
2023/09/20 01:30:01;;;;;;;0.10;0.10;;;;;;;;;;4810310;29;20054;-86
2023/09/20 01:32:27;;;;;;;0.10;0.10;;;;;;;;;;4825077;29;20399;-86
2023/09/20 01:34:53;;;;;;;0.30;0.20;;;;;;;;;;4810018;29;20424;-86
2023/09/20 01:37:19;;;;;;;0.10;0.10;;;;;;;;;;4826333;29;20116;-87
2023/09/20 01:39:45;;;;;;;0.20;0.20;;;;;;;;;;4824982;29;20046;-87
2023/09/20 01:42:11;;;;;;;0.10;0.10;;;;;;;;;;4809929;29;20317;-86
2023/09/20 01:44:37;;;;;;;0.20;0.20;;;;;;;;;;4825303;29;20107;-87
2023/09/20 01:47:04;;;;;;;0.10;0.10;;;;;;;;;;4824896;29;20523;-87
2023/09/20 01:49:32;;;;;;;0.10;0.10;;;;;;;;;;4824912;29;20053;-86
2023/09/20 01:51:58;;;;;;;0.10;0.10;;;;;;;;;;4824922;29;20554;-86
2023/09/20 01:54:27;;;;;;;0.10;0.10;;;;;;;;;;4809944;29;20103;-86
2023/09/20 01:56:55;;;;;;;0.10;0.10;;;;;;;;;;4810449;29;20137;-87
2023/09/20 01:59:23;;;;;;;0.30;0.30;;;;;;;;;;4795024;29;20111;-86
2023/09/20 02:01:50;;;;;;;0.10;0.10;;;;;;;;;;4810344;29;20070;-86
2023/09/20 02:04:16;;;;;;;0.10;0.10;;;;;;;;;;4794693;29;20079;-86
2023/09/20 02:06:43;;;;;;;0.10;0.10;;;;;;;;;;4794717;29;20095;-87
2023/09/20 02:09:09;;;;;;;0.10;0.10;;;;;;;;;;4824472;29;20046;-87
2023/09/20 02:11:35;;;;;;;0.10;0.10;;;;;;;;;;4809631;29;20050;-86
2023/09/20 02:14:01;;;;;;;0.10;0.10;;;;;;;;;;4809485;29;20377;-86
2023/09/20 02:16:27;;;;;;;0.10;0.10;;;;;;;;;;4824753;29;20052;-86
2023/09/20 02:18:53;;;;;;;0.10;0.10;;;;;;;;;;4794498;29;20050;-87
2023/09/20 02:21:19;;;;;;;0.35;0.35;;;;;;;;;;4824565;29;20121;-86
2023/09/20 02:23:45;;;;;;;0.10;0.10;;;;;;;;;;4809378;29;20081;-86
2023/09/20 02:26:12;;;;;;;0.35;0.30;;;;;;;;;;4809194;29;20104;-87
2023/09/20 02:28:38;;;;;;;0.10;0.10;;;;;;;;;;4824525;29;20157;-86
2023/09/20 02:31:05;;;;;;;0.10;0.10;;;;;;;;;;4809350;29;20072;-86
2023/09/20 02:33:31;;;;;;;0.30;0.30;;;;;;;;;;4809332;29;20045;-86
2023/09/20 02:35:57;;;;;;;0.10;0.10;;;;;;;;;;4808691;29;20159;-86
2023/09/20 02:38:23;;;;;;;0.10;0.10;;;;;;;;;;4824275;29;20573;-86
2023/09/20 02:40:50;;;;;;;0.30;0.30;;;;;;;;;;4824305;29;20103;-86
2023/09/20 02:43:16;;;;;;;1.10;1.10;;;;;;;;;;4824341;29;20050;-86
2023/09/20 02:45:45;;;;;;;0.20;0.20;;;;;;;;;;4809042;29;20526;-86
2023/09/20 02:48:11;;;;;;;0.10;0.10;;;;;;;;;;4809151;29;20054;-86
2023/09/20 02:50:37;;;;;;;0.10;0.10;;;;;;;;;;4809041;29;20050;-86
2023/09/20 02:53:04;;;;;;;0.10;0.10;;;;;;;;;;4808864;29;20058;-86
2023/09/20 02:55:33;;;;;;;0.10;0.10;;;;;;;;;;4794343;29;20050;-86
2023/09/20 02:57:59;;;;;;;0.20;0.20;;;;;;;;;;4824150;29;20510;-86
2023/09/20 03:00:30;;;;;;;0.10;0.10;;;;;;;;;;4808892;29;20079;-86
2023/09/20 03:02:57;;;;;;;0.20;0.20;;;;;;;;;;4809335;29;20086;-86
2023/09/20 03:05:27;;;;;;;0.20;0.20;;;;;;;;;;4794083;29;20125;-85
2023/09/20 03:07:53;;;;;;;0.10;0.10;;;;;;;;;;4808746;29;20055;-86
2023/09/20 03:10:21;;;;;;;0.20;0.20;;;;;;;;;;4808693;29;20083;-86
2023/09/20 03:12:47;;;;;;;0.35;0.30;;;;;;;;;;4793886;29;20043;-85
2023/09/20 03:15:17;;;;;;;0.10;0.10;;;;;;;;;;4808422;29;20133;-86
2023/09/20 03:17:47;;;;;;;0.25;0.25;;;;;;;;;;4823774;29;20335;-86
2023/09/20 03:20:24;;;;;;;0.10;0.10;;;;;;;;;;4808727;29;20594;-86
2023/09/20 03:22:57;;;;;;;0.10;0.10;;;;;;;;;;4794968;29;20046;-87
2023/09/20 03:25:23;;;;;;;0.10;0.10;;;;;;;;;;4809690;29;20418;-86
2023/09/20 03:27:50;;;;;;;0.10;0.10;;;;;;;;;;4826689;29;20447;-86
2023/09/20 03:30:22;;;;;;;0.20;0.20;;;;;;;;;;4826273;29;20081;-87
2023/09/20 03:32:49;;;;;;;0.10;0.10;;;;;;;;;;4812368;29;20131;-87
2023/09/20 03:35:16;;;;;;;0.20;0.20;;;;;;;;;;4796316;29;20090;-88
2023/09/20 03:37:43;;;;;;;0.20;0.20;;;;;;;;;;4811335;29;20050;-87
2023/09/20 03:40:10;;;;;;;0.30;0.25;;;;;;;;;;4811226;29;20517;-87
2023/09/20 03:42:40;;;;;;;0.10;0.10;;;;;;;;;;4826243;29;20129;-87
2023/09/20 03:45:07;;;;;;;0.20;0.20;;;;;;;;;;4810857;29;20124;-87
2023/09/20 03:47:33;;;;;;;0.10;0.10;;;;;;;;;;4825183;29;20084;-87
2023/09/20 03:49:59;;;;;;;0.10;0.10;;;;;;;;;;4796041;29;20492;-87
2023/09/20 03:52:25;;;;;;;0.10;0.10;;;;;;;;;;4811141;29;20180;-87
2023/09/20 03:54:51;;;;;;;0.10;0.10;;;;;;;;;;4826157;29;20463;-87
2023/09/20 03:57:19;;;;;;;0.10;0.10;;;;;;;;;;4796050;29;20044;-87
2023/09/20 03:59:47;;;;;;;0.10;0.10;;;;;;;;;;4810572;29;20046;-88
2023/09/20 04:02:14;;;;;;;0.10;0.10;;;;;;;;;;4795973;29;20046;-87
2023/09/20 04:04:40;;;;;;;0.10;0.10;;;;;;;;;;4795711;29;20113;-87
2023/09/20 04:07:07;;;;;;;0.20;0.20;;;;;;;;;;4810937;29;20426;-87
2023/09/20 04:09:33;;;;;;;0.10;0.10;;;;;;;;;;4825689;29;20045;-87
2023/09/20 04:12:01;;;;;;;0.20;0.20;;;;;;;;;;4796037;29;20042;-87
2023/09/20 04:14:27;;;;;;;0.20;0.20;;;;;;;;;;4810829;29;20065;-87
2023/09/20 04:16:54;;;;;;;0.68;0.68;;;;;;;;;;4825748;29;20087;-87
2023/09/20 04:19:21;;;;;;;0.10;0.10;;;;;;;;;;4810675;29;20467;-87
2023/09/20 04:21:47;;;;;;;0.10;0.10;;;;;;;;;;4810762;29;20049;-87
2023/09/20 04:24:13;;;;;;;0.10;0.10;;;;;;;;;;4810418;29;20133;-87
2023/09/20 04:26:39;;;;;;;0.10;0.10;;;;;;;;;;4825322;29;20157;-87
2023/09/20 04:29:06;;;;;;;0.10;0.10;;;;;;;;;;4810275;29;20162;-87
2023/09/20 04:31:33;;;;;;;0.10;0.10;;;;;;;;;;4810617;29;20049;-87
2023/09/20 04:34:00;;;;;;;0.10;0.10;;;;;;;;;;4825539;29;20102;-87
2023/09/20 04:36:27;;;;;;;0.10;0.10;;;;;;;;;;4825485;29;20401;-87
2023/09/20 04:38:53;;;;;;;0.10;0.10;;;;;;;;;;4810245;29;20057;-87
2023/09/20 04:41:19;;;;;;;0.10;0.10;;;;;;;;;;4825544;29;20436;-87
2023/09/20 04:43:45;;;;;;;0.10;0.10;;;;;;;;;;4810173;29;20547;-88
2023/09/20 04:46:11;;;;;;;0.10;0.10;;;;;;;;;;4810092;29;20050;-87
2023/09/20 04:48:40;;;;;;;0.10;0.10;;;;;;;;;;4825241;29;20137;-87
2023/09/20 04:51:06;;;;;;;0.17;0.17;;;;;;;;;;4825901;29;20077;-87
2023/09/20 04:53:35;;;;;;;0.10;0.10;;;;;;;;;;4794987;29;20053;-87
2023/09/20 04:56:02;;;;;;;0.10;0.10;;;;;;;;;;4810577;29;20106;-86
2023/09/20 04:58:28;;;;;;;0.10;0.10;;;;;;;;;;4809907;29;20053;-87
2023/09/20 05:00:54;;;;;;;0.15;0.15;;;;;;;;;;4825133;29;20394;-87
2023/09/20 05:03:20;;;;;;;0.10;0.10;;;;;;;;;;4810014;29;20057;-87
2023/09/20 05:05:50;;;;;;;0.10;0.10;;;;;;;;;;4825236;29;20053;-87
2023/09/20 05:08:18;;;;;;;0.10;0.10;;;;;;;;;;4810447;29;20052;-88
2023/09/20 05:10:44;;;;;;;0.10;0.10;;;;;;;;;;4794950;29;20045;-87
2023/09/20 05:13:10;;;;;;;0.43;0.43;;;;;;;;;;4825252;29;20057;-87
2023/09/20 05:15:39;;;;;;;0.10;0.10;;;;;;;;;;4810068;29;20133;-87
2023/09/20 05:18:05;;;;;;;0.10;0.10;;;;;;;;;;4809744;29;20077;-88
2023/09/20 05:20:31;;;;;;;0.10;0.10;;;;;;;;;;4810012;29;20046;-86
2023/09/20 05:22:58;;;;;;;0.10;0.10;;;;;;;;;;4810030;29;20046;-86
2023/09/20 05:25:25;;;;;;;0.10;0.10;;;;;;;;;;4809675;29;20544;-86
2023/09/20 05:27:54;;;;;;;0.10;0.10;;;;;;;;;;4825256;29;20072;-86
2023/09/20 05:30:20;;;;;;;0.10;0.10;;;;;;;;;;4794985;29;20106;-86
2023/09/20 05:32:50;;;;;;;0.10;0.10;;;;;;;;;;4794761;29;20046;-86
2023/09/20 05:35:17;;;;;;;0.20;0.20;;;;;;;;;;4810234;29;20490;-87
2023/09/20 05:37:43;;;;;;;0.10;0.10;;;;;;;;;;4794945;29;20077;-86
2023/09/20 05:40:18;;;;;;;0.20;0.20;;;;;;;;;;4809740;29;20487;-88
2023/09/20 05:42:47;;;;;;;0.22;0.22;;;;;;;;;;4810806;29;20046;-87
2023/09/20 05:45:13;;;;;;;0.10;0.10;;;;;;;;;;4794718;29;20428;-87
2023/09/20 05:47:43;;;;;;;0.10;0.10;;;;;;;;;;4809652;29;20053;-89
2023/09/20 05:50:14;;;;;;;0.20;0.20;;;;;;;;;;4809881;29;20049;-89
2023/09/20 05:52:43;;;;;;;0.10;0.10;;;;;;;;;;4810317;29;20109;-88
2023/09/20 05:55:13;;;;;;;0.30;0.30;;;;;;;;;;4794900;29;20478;-88
2023/09/20 05:57:40;;;;;;;0.10;0.10;;;;;;;;;;4809703;29;20038;-88
2023/09/20 06:00:09;;;;;;;0.10;0.10;;;;;;;;;;4824907;29;20046;-88
2023/09/20 06:02:37;;;;;;;0.10;0.10;;;;;;;;;;4824912;29;20081;-89
2023/09/20 06:05:04;;;;;;;0.20;0.20;;;;;;;;;;4809772;29;20045;-88
2023/09/20 06:07:30;;;;;;;0.20;0.20;;;;;;;;;;4794900;29;20050;-88
2023/09/20 06:09:56;;;;;;;0.10;0.10;;;;;;;;;;4794567;29;20379;-88
2023/09/20 06:12:24;;;;;;;0.10;0.10;;;;;;;;;;4812673;29;20109;-88
2023/09/20 06:14:51;;;;;;;0.10;0.10;;;;;;;;;;4812964;29;20046;-88
2023/09/20 06:17:18;;;;;;;0.20;0.20;;;;;;;;;;4798487;29;20041;-89
2023/09/20 06:19:43;;;;;;;0.20;0.20;;;;;;;;;;4813400;29;20053;-89
2023/09/20 06:22:12;;;;;;;0.10;0.10;;;;;;;;;;4828135;29;20052;-88
2023/09/20 06:24:38;;;;;;;0.10;0.10;;;;;;;;;;4797888;29;20498;-88
2023/09/20 06:27:05;;;;;;;0.10;0.10;;;;;;;;;;4809997;29;20070;-89
2023/09/20 06:29:31;;;;;;;0.10;0.10;;;;;;;;;;4794531;29;20049;-87
2023/09/20 06:31:57;;;;;;;0.20;0.20;;;;;;;;;;4824365;29;20050;-88
2023/09/20 06:34:24;;;;;;;0.10;0.10;;;;;;;;;;4824295;29;20133;-89
2023/09/20 06:36:51;;;;;;;0.10;0.10;;;;;;;;;;4794792;29;20106;-88
2023/09/20 06:39:18;;;;;;;0.10;0.10;;;;;;;;;;4824997;29;20133;-88
2023/09/20 06:41:44;;;;;;;0.35;0.20;;;;;;;;;;4824702;29;20065;-89
2023/09/20 06:44:12;;;;;;;0.10;0.10;;;;;;;;;;4810376;29;20244;-90
2023/09/20 06:46:41;;;;;;;0.10;0.10;;;;;;;;;;4795668;29;20262;-90
2023/09/20 06:49:08;;;;;;;0.10;0.10;;;;;;;;;;4810633;29;20081;-89
2023/09/20 06:51:34;;;;;;;0.10;0.10;;;;;;;;;;4825526;29;20050;-87
2023/09/20 06:54:00;;;;;;;1.35;0.88;;;;;;;;;;4794891;29;20502;-88
2023/09/20 06:56:26;;;;;;;0.10;0.10;;;;;;;;;;4821146;29;20042;-89
2023/09/20 06:58:53;;;;;;;0.20;0.20;;;;;;;;;;4861755;29;20045;-89
2023/09/20 07:01:19;;;;;;;0.20;0.20;;;;;;;;;;4863241;29;20037;-89
2023/09/20 07:03:45;;;;;;;0.20;0.20;;;;;;;;;;4864862;29;20145;-88
2023/09/20 07:06:12;;;;;;;0.15;0.15;;;;;;;;;;4864709;29;20030;-89
2023/09/20 07:08:38;;;;;;;0.10;0.10;;;;;;;;;;4845623;29;20049;-90
2023/09/20 07:11:04;;;;;;;0.20;0.20;;;;;;;;;;4827865;29;20042;-89
2023/09/20 07:13:32;;;;;;;0.10;0.10;;;;;;;;;;4827521;29;20540;-90
2023/09/20 07:16:08;;;;;;;0.10;0.10;;;;;;;;;;4827827;29;20129;-90
2023/09/20 07:18:36;;;;;;;0.10;0.10;;;;;;;;;;4813079;29;20120;-89
2023/09/20 07:21:02;;;;;;;0.20;0.20;;;;;;;;;;4827283;29;20128;-89
2023/09/20 07:23:29;;;;;;;0.10;0.10;;;;;;;;;;4827113;29;20057;-89
2023/09/20 07:25:55;;;;;;;0.10;0.10;;;;;;;;;;4812026;29;20054;-89
2023/09/20 07:28:24;;;;;;;0.10;0.10;;;;;;;;;;4811781;29;20146;-90
2023/09/20 07:30:50;;;;;;;0.10;0.10;;;;;;;;;;4812264;29;20507;-90
2023/09/20 07:33:23;;;;;;;0.63;0.35;;;;;;;;;;4811853;29;20130;-89
2023/09/20 07:35:58;;;;;;;0.30;0.30;;;;;;;;;;4827567;29;20050;-89
2023/09/20 07:38:29;;;;;;;0.10;0.10;;;;;;;;;;4812076;29;20206;-89
2023/09/20 07:41:17;;;;;;;0.10;0.10;;;;;;;;;;4812370;29;20041;-90
2023/09/20 07:43:44;;;;;;;0.10;0.10;;;;;;;;;;4827892;29;20129;-90
2023/09/20 07:46:13;;;;;;;0.20;0.20;;;;;;;;;;4842019;29;20138;-89
2023/09/20 07:48:50;;;;;;;0.20;0.20;;;;;;;;;;4841762;29;20077;-90
2023/09/20 07:51:29;;;;;;;0.10;0.10;;;;;;;;;;4829316;29;20085;-90
2023/09/20 07:53:55;;;;;;;0.10;0.10;;;;;;;;;;4826854;29;20125;-90
2023/09/20 07:56:21;;;;;;;0.10;0.10;;;;;;;;;;4826370;29;20080;-90
2023/09/20 07:58:47;;;;;;;0.20;0.20;;;;;;;;;;4826658;29;20072;-91
2023/09/20 08:01:20;;;;;;;0.10;0.10;;;;;;;;;;4826767;29;20502;-90
2023/09/20 08:03:52;;;;;;;0.10;0.10;;;;;;;;;;4827374;29;20050;-89
2023/09/20 08:06:18;;;;;;;;;;;;;;;;;;4812460;29;20046;-91
2023/09/20 08:08:44;;;;;;;0.17;0.17;;;;;;;;;;4841545;29;19976;-89
2023/09/20 08:11:10;;;;;;;0.10;0.10;;;;;;;;;;4826288;29;20399;-90
2023/09/20 08:13:36;;;;;;;0.20;0.20;;;;;;;;;;4811115;29;20048;-90
2023/09/20 08:16:02;;;;;;;0.20;0.20;;;;;;;;;;4829223;29;20053;-91
2023/09/20 08:21:13;;;;;;;0.35;0.30;;;;;;;;;;4829907;29;20513;-90
2023/09/20 09:02:15;;;;;;;0.10;0.10;;;;;;;;;;4840144;29;20053;-86
2023/09/20 09:04:42;;;;;;;0.20;0.20;;;;;;;;;;4840296;29;20406;-88
2023/09/20 09:07:08;;;;;;;0.10;0.10;;;;;;;;;;4825127;29;20042;-87
2023/09/20 09:09:34;;;;;;;0.10;0.10;;;;;;;;;;4824834;29;20402;-87
2023/09/20 09:12:00;;;;;;;0.10;0.10;;;;;;;;;;4839995;29;20038;-86
2023/09/20 09:14:26;;;;;;;0.10;0.10;;;;;;;;;;4841103;29;20049;-87
2023/09/20 09:17:01;;;;;;;0.10;0.10;;;;;;;;;;4824879;29;20077;-87
2023/09/20 09:19:29;;;;;;;0.10;0.10;;;;;;;;;;4840056;29;20201;-86
2023/09/20 09:21:56;;;;;;;0.10;0.10;;;;;;;;;;4824937;29;20447;-88
2023/09/20 09:24:22;;;;;;;0.20;0.20;;;;;;;;;;4839760;29;20050;-87
2023/09/20 09:26:48;;;;;;;0.10;0.10;;;;;;;;;;4824708;29;20118;-85
2023/09/20 09:29:17;;;;;;;0.10;0.10;;;;;;;;;;4824868;29;20461;-86
2023/09/20 09:31:51;;;;;;;0.10;0.10;;;;;;;;;;4841261;29;20046;-86
2023/09/20 09:34:19;;;;;;;0.10;0.10;;;;;;;;;;4824986;29;20046;-86
2023/09/20 09:36:45;;;;;;;0.10;0.10;;;;;;;;;;4810112;29;20041;-86
2023/09/20 09:39:14;;;;;;;0.10;0.10;;;;;;;;;;4839875;29;20471;-85
2023/09/20 09:41:44;;;;;;;0.10;0.10;;;;;;;;;;4825133;29;20554;-85
2023/09/20 09:44:13;;;;;;;0.10;0.10;;;;;;;;;;4824580;29;20133;-85
2023/09/20 09:46:39;;;;;;;0.10;0.10;;;;;;;;;;4828535;29;20643;-85
2023/09/20 09:49:11;;;;;;;0.10;0.10;;;;;;;;;;4828121;29;20042;-86
2023/09/20 09:51:38;;;;;;;;;;;;;;;;;;4813852;29;20046;-86
2023/09/20 09:54:04;;;;;;;0.10;0.10;;;;;;;;;;4843271;29;19976;-86
2023/09/20 09:56:30;;;;;;;0.10;0.10;;;;;;;;;;4843183;29;20049;-87
2023/09/20 09:58:55;;;;;;;0.75;0.70;;;;;;;;;;4824949;29;20132;-87
2023/09/20 10:01:21;;;;;;;0.10;0.10;;;;;;;;;;4843328;29;20042;-88
2023/09/20 10:03:49;;;;;;;0.10;0.10;;;;;;;;;;4827890;29;20065;-88
2023/09/20 10:06:16;;;;;;;0.20;0.20;;;;;;;;;;4827912;29;20486;-87
2023/09/20 10:08:42;;;;;;;0.20;0.20;;;;;;;;;;4842936;29;20094;-87
2023/09/20 10:11:08;;;;;;;0.10;0.10;;;;;;;;;;4828055;29;20057;-87
2023/09/20 10:13:37;;;;;;;0.20;0.20;;;;;;;;;;4830426;29;20042;-88
2023/09/20 10:16:04;;;;;;;0.10;0.10;;;;;;;;;;4827729;29;20049;-88
2023/09/20 10:18:34;;;;;;;0.20;0.20;;;;;;;;;;4827745;29;20046;-87
2023/09/20 10:21:14;;;;;;;0.10;0.10;;;;;;;;;;4842990;29;20038;-88
2023/09/20 10:23:42;;;;;;;0.10;0.10;;;;;;;;;;4828646;29;20117;-88
2023/09/20 10:26:17;;;;;;;0.10;0.10;;;;;;;;;;4827613;29;20093;-89
2023/09/20 10:28:47;;;;;;;0.10;0.10;;;;;;;;;;4827795;29;20064;-89
2023/09/20 10:31:22;;;;;;;0.10;0.10;;;;;;;;;;4812559;29;20087;-88
2023/09/20 10:33:55;;;;;;;0.10;0.10;;;;;;;;;;4827491;29;20070;-87
2023/09/20 10:36:30;;;;;;;0.10;0.10;;;;;;;;;;4844118;29;20045;-86
2023/09/20 10:39:16;;;;;;;0.30;0.30;;;;;;;;;;4827303;29;20042;-88
2023/09/20 10:41:42;;;;;;;0.20;0.20;;;;;;;;;;4843616;29;20053;-86
2023/09/20 10:44:09;;;;;;;0.10;0.10;;;;;;;;;;4827138;29;20053;-87
2023/09/20 10:46:37;;;;;;;0.10;0.10;;;;;;;;;;4842399;29;20049;-87
2023/09/20 10:49:06;;;;;;;0.10;0.10;;;;;;;;;;4827284;29;20138;-88
2023/09/20 10:51:48;;;;;;;0.10;0.10;;;;;;;;;;4827241;29;20049;-88
2023/09/20 10:54:29;;;;;;;0.10;0.10;;;;;;;;;;4827231;29;20065;-88
2023/09/20 10:57:02;;;;;;;0.10;0.10;;;;;;;;;;4812181;29;20085;-88
2023/09/20 10:59:28;;;;;;;0.20;0.20;;;;;;;;;;4827957;29;20058;-87
2023/09/20 11:01:56;;;;;;;0.10;0.10;;;;;;;;;;4827139;29;20045;-87
2023/09/20 11:04:23;;;;;;;0.10;0.10;;;;;;;;;;4827047;29;20098;-86
2023/09/20 11:06:49;;;;;;;0.20;0.20;;;;;;;;;;4827157;29;20054;-86
2023/09/20 11:09:15;;;;;;;0.20;0.20;;;;;;;;;;4826949;29;20048;-87
2023/09/20 11:11:42;;;;;;;0.30;0.30;;;;;;;;;;4826791;29;20577;-87
2023/09/20 11:14:12;;;;;;;0.15;0.15;;;;;;;;;;4826610;29;20042;-88
2023/09/20 11:16:41;;;;;;;0.10;0.10;;;;;;;;;;4827050;29;20050;-87
2023/09/20 11:19:08;;;;;;;0.20;0.20;;;;;;;;;;4842013;29;20502;-87
2023/09/20 11:21:34;;;;;;;0.20;0.20;;;;;;;;;;4841664;29;20042;-87
2023/09/20 11:24:00;;;;;;;0.20;0.20;;;;;;;;;;4826489;29;20140;-87
2023/09/20 11:26:29;;;;;;;0.10;0.10;;;;;;;;;;4841733;29;20379;-88
2023/09/20 11:28:56;;;;;;;0.10;0.10;;;;;;;;;;4826737;29;20085;-89
2023/09/20 11:31:29;;;;;;;0.20;0.20;;;;;;;;;;4841742;29;20115;-88
2023/09/20 11:33:59;;;;;;;0.20;0.20;;;;;;;;;;4827087;29;20082;-89
2023/09/20 11:36:26;;;;;;;0.20;0.20;;;;;;;;;;4826548;29;20041;-88
2023/09/20 11:38:53;;;;;;;0.15;0.15;;;;;;;;;;4826595;29;20054;-88
2023/09/20 11:41:21;;;;;;;0.10;0.10;;;;;;;;;;4811547;29;20084;-89
2023/09/20 11:43:47;;;;;;;0.10;0.10;;;;;;;;;;4841405;29;20391;-90
2023/09/20 11:46:13;;;;;;;0.10;0.10;;;;;;;;;;4826500;29;20054;-89
2023/09/20 11:48:39;;;;;;;0.43;0.43;;;;;;;;;;4826358;29;20346;-89
2023/09/20 11:51:05;;;;;;;0.13;0.13;;;;;;;;;;4811239;29;20045;-89
2023/09/20 11:53:32;;;;;;;0.10;0.10;;;;;;;;;;4811269;29;20041;-89
2023/09/20 11:56:04;;;;;;;0.40;0.40;;;;;;;;;;4826550;29;20149;-88
2023/09/20 11:58:34;;;;;;;0.10;0.10;;;;;;;;;;4826076;29;20042;-88
2023/09/20 12:01:03;;;;;;;0.30;0.30;;;;;;;;;;4841159;29;20045;-88
2023/09/20 12:03:29;;;;;;;0.10;0.10;;;;;;;;;;4811067;29;20049;-89
2023/09/20 12:05:55;;;;;;;0.10;0.10;;;;;;;;;;4841201;29;20041;-88
2023/09/20 12:08:22;;;;;;;0.10;0.10;;;;;;;;;;4825151;29;20038;-89
2023/09/20 12:10:48;;;;;;;0.10;0.10;;;;;;;;;;4810872;29;20042;-87
2023/09/20 12:13:14;;;;;;;0.20;0.20;;;;;;;;;;4841138;29;20044;-89
2023/09/20 12:15:43;;;;;;;0.10;0.10;;;;;;;;;;4826022;29;20133;-88
2023/09/20 12:18:13;;;;;;;0.10;0.10;;;;;;;;;;4825819;29;20129;-87
2023/09/20 12:20:39;;;;;;;0.13;0.13;;;;;;;;;;4841030;29;20374;-86
2023/09/20 12:23:06;;;;;;;0.10;0.10;;;;;;;;;;4825735;29;20529;-86
2023/09/20 12:25:32;;;;;;;0.20;0.20;;;;;;;;;;4842815;29;20413;-88
2023/09/20 12:27:59;;;;;;;0.10;0.10;;;;;;;;;;4828911;29;20061;-88
2023/09/20 12:30:27;;;;;;;0.10;0.10;;;;;;;;;;4828708;29;20537;-88
2023/09/20 12:32:54;;;;;;;0.17;0.17;;;;;;;;;;4813790;29;20104;-87
2023/09/20 12:35:20;;;;;;;0.50;0.50;;;;;;;;;;4828485;29;20093;-88
2023/09/20 12:37:46;;;;;;;0.10;0.10;;;;;;;;;;4828630;29;20097;-87
2023/09/20 12:40:12;;;;;;;0.10;0.10;;;;;;;;;;4843633;29;20068;-87
2023/09/20 12:42:38;;;;;;;0.15;0.15;;;;;;;;;;4843462;29;20409;-88
2023/09/20 12:45:08;;;;;;;0.35;0.20;;;;;;;;;;4843422;29;20067;-86
2023/09/20 12:47:34;;;;;;;0.10;0.10;;;;;;;;;;4843459;29;20045;-88
2023/09/20 12:50:00;;;;;;;0.10;0.10;;;;;;;;;;4813471;29;20046;-88
2023/09/20 12:52:26;;;;;;;0.30;0.30;;;;;;;;;;4828535;29;20113;-89
2023/09/20 12:54:52;;;;;;;0.28;0.25;;;;;;;;;;4843266;29;20077;-89
2023/09/20 12:57:18;;;;;;;0.10;0.10;;;;;;;;;;4828317;29;20497;-88
2023/09/20 12:59:45;;;;;;;0.30;0.30;;;;;;;;;;4843410;29;20563;-88
2023/09/20 13:02:11;;;;;;;0.17;0.17;;;;;;;;;;4828402;29;20512;-88
2023/09/20 13:04:37;;;;;;;0.10;0.10;;;;;;;;;;4813093;29;20080;-89
2023/09/20 13:07:03;;;;;;;0.10;0.10;;;;;;;;;;4813022;29;20080;-88
2023/09/20 13:09:29;;;;;;;0.13;0.13;;;;;;;;;;4828514;29;20052;-89
2023/09/20 13:11:55;;;;;;;0.10;0.10;;;;;;;;;;4843350;29;20128;-88
2023/09/20 13:14:23;;;;;;;0.10;0.10;;;;;;;;;;4843431;29;20652;-89
2023/09/20 13:16:49;;;;;;;0.13;0.13;;;;;;;;;;4813145;29;20462;-89
2023/09/20 13:19:16;;;;;;;0.20;0.20;;;;;;;;;;4828116;29;20094;-88
2023/09/20 13:21:42;;;;;;;0.10;0.10;;;;;;;;;;4863446;29;20054;-87
2023/09/20 13:24:08;;;;;;;0.10;0.10;;;;;;;;;;4831560;29;20041;-88
2023/09/20 13:26:36;;;;;;;0.63;0.63;;;;;;;;;;4816408;29;20140;-89
2023/09/20 13:29:02;;;;;;;0.10;0.10;;;;;;;;;;4831885;29;20054;-88
2023/09/20 13:31:28;;;;;;;0.10;0.10;;;;;;;;;;4816917;29;20042;-90
2023/09/20 13:33:54;;;;;;;0.10;0.10;;;;;;;;;;4831661;29;20390;-89
2023/09/20 13:36:21;;;;;;;0.10;0.10;;;;;;;;;;4831881;29;20049;-90
2023/09/20 13:38:47;;;;;;;0.10;0.10;;;;;;;;;;4816440;29;20045;-88
2023/09/20 13:41:13;;;;;;;0.10;0.10;;;;;;;;;;4831328;29;20060;-89
2023/09/20 13:43:42;;;;;;;0.20;0.20;;;;;;;;;;4847111;29;20106;-91
2023/09/20 13:46:14;;;;;;;0.10;0.10;;;;;;;;;;4832229;29;20049;-90
2023/09/20 13:48:40;;;;;;;0.20;0.20;;;;;;;;;;4863792;29;20508;-92
2023/09/20 13:51:12;;;;;;;0.20;0.20;;;;;;;;;;4831770;29;20045;-88
2023/09/20 13:53:40;;;;;;;0.10;0.10;;;;;;;;;;4846877;29;20049;-88
2023/09/20 13:56:05;;;;;;;0.10;0.10;;;;;;;;;;4851162;29;20056;-89
2023/09/20 13:58:33;;;;;;;0.10;0.10;;;;;;;;;;4855412;29;20038;-88
2023/09/20 14:01:05;;;;;;;0.20;0.20;;;;;;;;;;4848254;29;20404;-88
2023/09/20 14:03:33;;;;;;;0.10;0.10;;;;;;;;;;4841477;29;20097;-89
2023/09/20 14:06:01;;;;;;;0.10;0.10;;;;;;;;;;4858104;29;20049;-89
2023/09/20 14:08:27;;;;;;;0.10;0.10;;;;;;;;;;4832935;29;20044;-89
2023/09/20 14:10:53;;;;;;;0.17;0.17;;;;;;;;;;4848802;29;20045;-90
2023/09/20 14:13:19;;;;;;;0.20;0.20;;;;;;;;;;4846769;29;20053;-89
2023/09/20 14:15:45;;;;;;;0.10;0.10;;;;;;;;;;4816259;29;20041;-89
2023/09/20 14:18:11;;;;;;;0.20;0.20;;;;;;;;;;4846709;29;20128;-90
2023/09/20 14:20:39;;;;;;;0.10;0.10;;;;;;;;;;4831763;29;20088;-91
2023/09/20 14:23:05;;;;;;;0.10;0.10;;;;;;;;;;4846467;29;20088;-87
2023/09/20 14:25:31;;;;;;;0.10;0.10;;;;;;;;;;4830392;29;20481;-88
2023/09/20 14:27:57;;;;;;;0.10;0.10;;;;;;;;;;4830713;29;20056;-88
2023/09/20 14:30:24;;;;;;;0.20;0.20;;;;;;;;;;4846091;29;20054;-87
2023/09/20 14:32:54;;;;;;;0.20;0.20;;;;;;;;;;4814860;29;20052;-87
2023/09/20 14:35:20;;;;;;;0.10;0.10;;;;;;;;;;4830482;29;20049;-87
2023/09/20 14:37:47;;;;;;;0.45;0.20;;;;;;;;;;4815759;29;20053;-88
2023/09/20 14:40:17;;;;;;;0.20;0.20;;;;;;;;;;4845988;29;20049;-89
2023/09/20 14:42:44;;;;;;;0.20;0.20;;;;;;;;;;4831336;29;20569;-88
2023/09/20 14:45:13;;;;;;;0.17;0.17;;;;;;;;;;4845859;29;20417;-87
2023/09/20 14:47:44;;;;;;;0.20;0.20;;;;;;;;;;4830678;29;20045;-89
2023/09/20 14:50:12;;;;;;;0.10;0.10;;;;;;;;;;4830875;29;20525;-89
2023/09/20 14:52:38;;;;;;;0.10;0.10;;;;;;;;;;4862295;29;20050;-90
2023/09/20 14:55:04;;;;;;;0.10;0.10;;;;;;;;;;4845850;29;20045;-89
2023/09/20 14:57:33;;;;;;;0.20;0.20;;;;;;;;;;4830253;29;20041;-89
2023/09/20 15:00:05;;;;;;;0.20;0.20;;;;;;;;;;4831504;29;20049;-89
2023/09/20 15:02:32;;;;;;;0.15;0.15;;;;;;;;;;4815590;29;20101;-89
2023/09/20 15:04:59;;;;;;;0.10;0.10;;;;;;;;;;4830346;29;20205;-89
2023/09/20 15:07:26;;;;;;;0.20;0.20;;;;;;;;;;4830376;29;20045;-89
2023/09/20 15:09:52;;;;;;;0.10;0.10;;;;;;;;;;4830285;29;20058;-88
2023/09/20 15:12:19;;;;;;;0.10;0.10;;;;;;;;;;4845738;29;20034;-90
2023/09/20 15:14:47;;;;;;;0.30;0.30;;;;;;;;;;4830220;29;20417;-91
2023/09/20 15:17:14;;;;;;;0.20;0.20;;;;;;;;;;4845338;29;20049;-91
2023/09/20 15:19:40;;;;;;;0.10;0.10;;;;;;;;;;4830228;29;20205;-90
2023/09/20 15:22:06;;;;;;;0.10;0.10;;;;;;;;;;4830180;29;20064;-90
2023/09/20 15:24:32;;;;;;;0.10;0.10;;;;;;;;;;4845268;29;20077;-91
2023/09/20 15:26:58;;;;;;;0.10;0.10;;;;;;;;;;4830085;29;20175;-91